Estaciones Metar próximas

 

LELL - Sabadell, Spain
Distancia a la estación: E 18km
Actualizado: 20/04/2018 22:00
Despejado
Despejado
 Viento del calm
Viento: Calma
Temperatura: 16°C
Rocío: 12°C
Humedad: 77%
Barómetro: 1022 hPa
Nubes: Despejado
Visibilidad: 10 km
2018/04/20 20:00 LELL 202000Z AUTO 00000KT 9999 NCD 16/12 Q1022
LEBL - Barcelona Airpor, Spain
Distancia a la estación: SSE 33km
Actualizado: 20/04/2018 22:00
Despejado
Despejado
 Viento del varies
Viento: varies 2 km/h
Temperatura: 16°C
Rocío: 11°C
Humedad: 72%
Barómetro: 1022 hPa
Resumen: Despejado
Visibilidad: greater than 10 km
2018/04/20 20:00 LEBL 202000Z VRB01KT CAVOK 16/11 Q1022 TEMPO 0800 BCFG BKN005
LERS - Reus (civ/Mil), Spain
Distancia a la estación: SO 75km
Actualizado: 20/04/2018 22:00
Despejado
Despejado
 Viento del calm
Viento: Calma
Temperatura: 15°C
Rocío: 11°C
Humedad: 77%
Barómetro: 1022 hPa
Resumen: Despejado
Visibilidad: greater than 10 km
2018/04/20 20:00 LERS 202000Z 00000KT CAVOK 15/11 Q1022
 
LEGE - Gerona/Costa Bra, Spain
Distancia a la estación: ENE 83km
Actualizado: 20/04/2018 22:00
Despejado
Despejado
 Viento del varies
Viento: varies 4 km/h
Temperatura: 14°C
Rocío: 11°C
Humedad: 82%
Barómetro: 1022 hPa
Resumen: Despejado
Visibilidad: greater than 10 km
2018/04/20 20:00 LEGE 202000Z VRB02KT CAVOK 14/11 Q1022
LFMP - Perpignan/Rivesa, France
Distancia a la estación: NNE 155km
Actualizado: 20/04/2018 22:00
Despejado
Despejado
 Viento del ENE
Viento: ENE 7 km/h
Temperatura: 16°C
Rocío: 11°C
Humedad: 72%
Barómetro: 1022 hPa
Resumen: Despejado
Visibilidad: greater than 10 km
2018/04/20 20:00 LFMP 202000Z AUTO 07004KT CAVOK 16/11 Q1022 NOSIG
LFMK - Carcassonne/Salv, France
Distancia a la estación: N 191km
Actualizado: 20/04/2018 22:00
Despejado
Despejado
 Viento del E
Viento: E 19 km/h
Temperatura: 17°C
Rocío: 8°C
Humedad: 56%
Barómetro: 1021 hPa
Resumen: Despejado
Visibilidad: greater than 10 km
2018/04/20 20:00 LFMK 202000Z AUTO 09010KT CAVOK 17/08 Q1021
 
LEHC - Huesca-Pirineos, Spain
Distancia a la estación: ONO 193km
Actualizado: 20/04/2018 22:00
Despejado
Despejado
 Viento del varies
Viento: varies 4 km/h
Temperatura: 14°C
Rocío: 8°C
Humedad: 67%
Barómetro: 1022 hPa
Nubes: Despejado
Visibilidad: 10 km
2018/04/20 20:00 LEHC 202000Z AUTO VRB02KT 9999 NCD 14/08 Q1022
LFMU - Beziers/Vias, France
Distancia a la estación: NNE 232km
Actualizado: 20/04/2018 22:00
Despejado
Despejado
 Viento del SO
Viento: SO 4 km/h
Temperatura: 16°C
Rocío: 12°C
Humedad: 77%
Barómetro: 1021 hPa
Resumen: Despejado
Visibilidad: greater than 10 km
2018/04/20 20:00 LFMU 202000Z AUTO 22002KT CAVOK 16/12 Q1021 NOSIG
LEPA - Palma De Mallorc, Spain
Distancia a la estación: SSE 233km
Actualizado: 20/04/2018 22:00
Despejado
Despejado
 Viento del ENE
Viento: ENE 9 km/h
Temperatura: 16°C
Rocío: 11°C
Humedad: 72%
Barómetro: 1021 hPa
Resumen: Despejado
Visibilidad: greater than 10 km
2018/04/20 20:00 LEPA 202000Z 07005KT CAVOK 16/11 Q1021 NOSIG
 
LFBO - Toulouse/Blagnac, France
Distancia a la estación: N 236km
Actualizado: 20/04/2018 22:00
Despejado
Despejado
 Viento del ESE
Viento: ESE 17 km/h
Temperatura: 21°C
Rocío: 9°C
Humedad: 46%
Barómetro: 1020 hPa
Resumen: Despejado
Visibilidad: greater than 10 km
2018/04/20 20:00 LFBO 202000Z AUTO 12009KT CAVOK 21/09 Q1020 NOSIG
LFBT - Tarbes/Ossun, France
Distancia a la estación: NO 239km
Actualizado: 20/04/2018 22:00
Despejado
Despejado
 Viento del varies
Viento: varies 4 km/h
Temperatura: 18°C
Rocío: 10°C
Humedad: 60%
Barómetro: 1020 hPa
Resumen: Despejado
Visibilidad: greater than 10 km
2018/04/20 20:00 LFBT 202000Z AUTO VRB02KT CAVOK 18/10 Q1020 NOSIG
LEZG - Zaragoza (mil/Ci, Spain
Distancia a la estación: O 242km
Actualizado: 20/04/2018 22:00
Despejado
Despejado
 Viento del ESE
Viento: ESE 20 km/h
Temperatura: 18°C
Rocío: 9°C
Humedad: 56%
Barómetro: 1021 hPa
Resumen: Despejado
Visibilidad: greater than 10 km
2018/04/20 20:00 LEZG 202000Z 12011KT CAVOK 18/09 Q1021